createdAt,value
2019-02-19T05:39:42.942Z,7.60
2019-02-19T05:44:54.356Z,7.20
2019-02-19T05:49:59.085Z,7.47
2019-02-19T05:55:03.974Z,7.00
2019-02-19T06:00:11.062Z,9.90
2019-02-19T06:11:08.494Z,7.08
2019-02-19T06:16:58.518Z,8.30
2019-02-19T06:33:42.603Z,7.25
2019-02-19T06:39:33.684Z,7.10
2019-02-19T06:45:02.538Z,6.70
2019-02-19T06:57:38.983Z,9.03
2019-02-19T07:14:33.070Z,9.98
2019-02-19T07:39:36.550Z,11.18
2019-02-19T07:45:41.021Z,12.00
2019-02-19T08:00:10.151Z,9.55
2019-02-19T08:19:58.469Z,11.87
2019-02-19T14:24:05.695Z,7.72
2019-02-19T14:29:31.941Z,7.50
2019-02-19T14:35:04.303Z,6.73
2019-02-19T14:40:27.828Z,6.08
2019-02-19T14:45:51.134Z,6.15
2019-02-19T14:51:13.271Z,4.40
2019-02-19T14:56:31.402Z,3.80
2019-02-19T15:01:53.456Z,2.60
2019-02-19T15:07:13.642Z,5.10
2019-02-19T15:12:35.516Z,3.17
2019-02-19T15:18:10.750Z,2.20
2019-02-19T15:23:32.821Z,4.28
2019-02-19T15:28:53.543Z,5.23
2019-02-19T15:34:23.945Z,3.20
2019-02-19T15:39:45.389Z,3.13
2019-02-19T15:45:10.001Z,3.90
2019-02-19T15:50:36.428Z,5.77
2019-02-19T15:56:05.658Z,3.40
2019-02-19T16:01:43.233Z,3.80
2019-02-19T16:06:52.908Z,5.10
2019-02-19T16:12:18.505Z,4.40
2019-02-19T16:17:40.442Z,6.15
2019-02-19T16:22:54.916Z,5.83
2019-02-19T16:28:11.897Z,3.70
2019-02-19T16:33:57.454Z,3.70
2019-02-19T16:39:25.512Z,5.70
2019-02-19T16:45:07.415Z,4.95
2019-02-19T16:50:49.026Z,3.27
2019-02-19T16:56:09.661Z,3.58
2019-02-19T17:01:36.242Z,3.22
2019-02-19T17:07:04.869Z,3.22
2019-02-19T17:12:41.993Z,3.33
2019-02-19T17:18:33.279Z,4.53
2019-02-19T17:23:59.256Z,4.30
2019-02-19T17:29:50.418Z,2.80
2019-02-19T17:35:57.854Z,4.42
2019-02-19T17:41:29.972Z,4.03
2019-02-19T17:47:23.385Z,5.67
2019-02-19T17:53:09.786Z,4.00
2019-02-19T17:59:02.234Z,6.00
2019-02-19T18:10:53.809Z,3.98
2019-02-19T18:16:20.326Z,3.85
2019-02-19T18:40:03.315Z,4.10
2019-02-19T18:46:50.212Z,4.80
2019-02-19T18:51:32.872Z,3.37
2019-02-19T18:56:06.333Z,5.05
2019-02-19T19:06:58.669Z,5.10
2019-02-19T19:12:20.722Z,6.08
2019-02-19T19:17:44.968Z,4.40
2019-02-19T19:23:10.314Z,7.12
2019-02-19T19:28:37.082Z,7.00
2019-02-19T19:33:52.661Z,9.68
2019-02-19T19:39:12.568Z,5.75
2019-02-19T19:44:33.430Z,6.72
2019-02-19T19:49:46.004Z,12.27
2019-02-19T19:55:21.185Z,6.95
2019-02-19T20:00:50.950Z,7.00
2019-02-19T20:18:14.851Z,6.97
2019-02-19T20:23:21.744Z,6.43
